Time;durP1;ratioP1;P1;durP2;ratioP2;P2;SDS_P1;SDS_P2;PMS_P1;PMS_P2;Temp;Humidity;BMP_temperature;BMP_pressure;BME280_temperature;BME280_humidity;BME280_pressure;Samples;Min_cycle;Max_cycle;Signal;HPM_P1;HPM_P2
2022/07/08 00:00:12;;;;;;;0.40;0.40;;;;;;;29.20;31.97;99764.59;1869341;76;28162;-52
2022/07/08 00:03:01;;;;;;;0.40;0.40;;;;;;;29.20;31.97;99764.59;1896255;75;28115;-50
2022/07/08 00:05:49;;;;;;;0.50;0.50;;;;;;;29.13;32.29;99755.13;1891500;73;28306;-48
2022/07/08 00:08:38;;;;;;;0.40;0.40;;;;;;;29.22;32.22;99784.55;1891022;75;28134;-51
2022/07/08 00:11:26;;;;;;;0.50;0.50;;;;;;;29.18;32.24;99770.95;1847873;76;28245;-49
2022/07/08 00:14:15;;;;;;;0.45;0.45;;;;;;;29.09;32.16;99791.91;1872567;75;28225;-49
2022/07/08 00:17:04;;;;;;;0.50;0.50;;;;;;;28.79;32.33;99793.16;1896300;74;28335;-50
2022/07/08 00:19:52;;;;;;;0.50;0.50;;;;;;;28.67;32.42;99790.60;1883064;75;32109;-47
2022/07/08 00:22:40;;;;;;;0.47;0.47;;;;;;;28.63;32.40;99792.25;1880847;75;28251;-53
2022/07/08 00:25:29;;;;;;;0.50;0.50;;;;;;;28.57;32.41;99792.72;1879577;75;28157;-49
2022/07/08 00:28:18;;;;;;;1.30;0.68;;;;;;;28.51;32.57;99784.12;1880032;75;28203;-48
2022/07/08 00:31:06;;;;;;;0.50;0.50;;;;;;;28.46;32.64;99791.54;1869319;76;28176;-50
2022/07/08 00:33:55;;;;;;;0.43;0.43;;;;;;;28.43;32.66;99801.73;1880041;75;28114;-47
2022/07/08 00:36:43;;;;;;;0.62;0.50;;;;;;;28.38;32.72;99808.06;1897297;75;28301;-50
2022/07/08 00:39:32;;;;;;;0.50;0.50;;;;;;;28.33;32.83;99796.16;1889887;75;28113;-54
2022/07/08 00:42:20;;;;;;;0.50;0.50;;;;;;;28.32;32.90;99802.22;1854844;76;37027;-54
2022/07/08 00:45:10;;;;;;;0.50;0.50;;;;;;;28.28;33.02;99803.02;1862532;76;28134;-51
2022/07/08 00:47:58;;;;;;;1.10;0.60;;;;;;;28.26;33.05;99814.89;1860978;76;28030;-51
2022/07/08 00:50:47;;;;;;;0.40;0.40;;;;;;;28.20;33.13;99813.16;1858622;76;28153;-51
2022/07/08 00:53:38;;;;;;;0.80;0.60;;;;;;;28.12;33.30;99807.60;1852784;76;28079;-52
2022/07/08 00:56:28;;;;;;;1.20;0.50;;;;;;;28.06;33.39;99806.72;1841941;76;28155;-49
2022/07/08 00:59:17;;;;;;;0.50;0.50;;;;;;;28.02;33.46;99809.73;1842385;76;28111;-49
2022/07/08 01:02:05;;;;;;;0.60;0.60;;;;;;;28.00;33.53;99817.45;1853135;76;28070;-49
2022/07/08 01:04:54;;;;;;;0.70;0.70;;;;;;;27.93;33.68;99815.41;1839810;77;28102;-49
2022/07/08 01:07:43;;;;;;;0.65;0.65;;;;;;;27.89;33.76;99810.68;1857306;74;28636;-52
2022/07/08 01:10:32;;;;;;;0.50;0.50;;;;;;;27.87;33.72;99804.02;1870254;76;29930;-48
2022/07/08 01:13:22;;;;;;;0.60;0.60;;;;;;;27.85;33.82;99809.52;1856358;76;28059;-50
2022/07/08 01:16:11;;;;;;;0.60;0.60;;;;;;;27.84;33.85;99809.25;1851104;76;28137;-49
2022/07/08 01:18:59;;;;;;;0.50;0.50;;;;;;;27.74;34.26;99816.04;1844309;76;28186;-46
2022/07/08 01:21:48;;;;;;;0.68;0.68;;;;;;;27.74;34.26;99816.04;1839771;77;28160;-53
2022/07/08 01:24:36;;;;;;;0.57;0.57;;;;;;;27.72;34.06;99813.55;1854772;76;28177;-48
2022/07/08 01:27:25;;;;;;;0.68;0.68;;;;;;;27.71;34.13;99816.55;1850062;76;28000;-47
2022/07/08 01:30:14;;;;;;;0.50;0.50;;;;;;;27.70;34.18;99809.38;1870931;76;28138;-48
2022/07/08 01:33:02;;;;;;;0.50;0.50;;;;;;;27.68;34.29;99812.95;1851417;76;28156;-49
2022/07/08 01:35:50;;;;;;;0.68;0.68;;;;;;;27.68;34.34;99808.81;1853539;76;28038;-48
2022/07/08 01:38:39;;;;;;;3.90;0.70;;;;;;;27.68;34.37;99828.95;1850178;76;28058;-53
2022/07/08 01:41:27;;;;;;;0.50;0.50;;;;;;;27.65;34.45;99832.78;1849945;75;28102;-48
2022/07/08 01:44:16;;;;;;;4.00;0.60;;;;;;;27.59;34.50;99818.09;1870498;76;28000;-47
2022/07/08 01:47:05;;;;;;;0.57;0.57;;;;;;;27.61;34.52;99826.94;1852123;76;28072;-50
2022/07/08 01:49:53;;;;;;;0.90;0.57;;;;;;;27.59;34.59;99813.11;1849495;76;28478;-49
2022/07/08 01:52:42;;;;;;;0.60;0.60;;;;;;;27.58;34.64;99831.62;1849093;76;28146;-49
2022/07/08 01:55:30;;;;;;;0.50;0.50;;;;;;;27.60;34.71;99839.63;1853597;76;28074;-51
2022/07/08 01:58:18;;;;;;;0.60;0.60;;;;;;;27.58;34.72;99821.11;1839176;77;28148;-49
2022/07/08 02:01:06;;;;;;;0.80;0.80;;;;;;;27.58;34.74;99837.14;1860272;76;28159;-52
2022/07/08 02:03:54;;;;;;;0.80;0.80;;;;;;;27.62;34.69;99830.53;1839115;77;28138;-50
2022/07/08 02:06:43;;;;;;;0.53;0.53;;;;;;;27.64;34.66;99827.80;1839044;77;28145;-49
2022/07/08 02:09:32;;;;;;;0.50;0.50;;;;;;;27.64;34.67;99837.47;1843033;76;28317;-53
2022/07/08 02:12:20;;;;;;;0.50;0.50;;;;;;;27.64;34.66;99840.22;1860192;76;28051;-48
2022/07/08 02:15:10;;;;;;;0.50;0.50;;;;;;;27.62;34.66;99832.75;1838993;76;28206;-50
2022/07/08 02:17:58;;;;;;;0.60;0.60;;;;;;;27.63;34.60;99840.50;1853340;76;28062;-48
2022/07/08 02:20:46;;;;;;;1.10;0.60;;;;;;;27.64;34.67;99840.77;1841193;76;28122;-53
2022/07/08 02:23:35;;;;;;;0.93;0.60;;;;;;;27.58;34.67;99856.99;1842110;76;28147;-48
2022/07/08 02:26:23;;;;;;;0.90;0.50;;;;;;;27.57;34.71;99840.13;1852546;76;28074;-49
2022/07/08 02:29:11;;;;;;;0.63;0.63;;;;;;;27.57;34.72;99840.13;1851570;76;28073;-49
2022/07/08 02:32:00;;;;;;;1.35;0.68;;;;;;;27.58;34.66;99843.20;1842664;76;28254;-48
2022/07/08 02:34:49;;;;;;;0.60;0.60;;;;;;;27.56;34.74;99842.63;1839187;77;28347;-50
2022/07/08 02:37:37;;;;;;;0.60;0.60;;;;;;;27.54;34.76;99847.00;1855356;76;28000;-48
2022/07/08 02:40:26;;;;;;;0.50;0.50;;;;;;;27.50;34.75;99843.64;1860090;76;28144;-51
2022/07/08 02:43:14;;;;;;;0.62;0.62;;;;;;;27.47;34.91;99851.89;1870399;75;28252;-49
2022/07/08 02:46:03;;;;;;;0.70;0.70;;;;;;;27.46;34.86;99854.38;1890241;75;28129;-51
2022/07/08 02:48:51;;;;;;;1.70;0.70;;;;;;;27.50;34.85;99864.34;1884170;75;28147;-49
2022/07/08 02:51:40;;;;;;;0.70;0.70;;;;;;;27.49;34.90;99869.05;1880058;75;28122;-50
2022/07/08 02:54:29;;;;;;;0.60;0.60;;;;;;;27.48;34.92;99865.14;1897843;75;28172;-52
2022/07/08 02:57:17;;;;;;;0.62;0.60;;;;;;;27.43;34.97;99868.68;1889055;75;28160;-48
2022/07/08 03:00:06;;;;;;;0.70;0.70;;;;;;;27.42;35.00;99864.27;1883353;75;28105;-51
2022/07/08 03:02:54;;;;;;;0.60;0.60;;;;;;;27.37;35.09;99876.08;1880392;75;28090;-47
2022/07/08 03:05:42;;;;;;;0.60;0.60;;;;;;;27.35;35.14;99878.20;1879803;75;28215;-51
2022/07/08 03:08:30;;;;;;;0.60;0.60;;;;;;;27.33;35.25;99890.58;1885118;73;28217;-51
2022/07/08 03:11:19;;;;;;;0.57;0.57;;;;;;;27.31;35.31;99883.11;1869492;76;28192;-48
2022/07/08 03:14:07;;;;;;;0.55;0.55;;;;;;;27.33;35.28;99887.82;1900873;73;28568;-51
2022/07/08 03:16:56;;;;;;;0.50;0.50;;;;;;;27.34;35.29;99875.71;1872702;73;28183;-47
2022/07/08 03:19:44;;;;;;;0.70;0.50;;;;;;;27.33;35.30;99882.30;1870835;76;28216;-49
2022/07/08 03:22:36;;;;;;;0.70;0.70;;;;;;;27.31;35.34;99875.67;1891156;75;28140;-47
2022/07/08 03:25:25;;;;;;;0.53;0.53;;;;;;;27.31;35.35;99884.49;1891344;75;28242;-51
2022/07/08 03:28:13;;;;;;;0.70;0.70;;;;;;;27.24;35.43;99893.50;1869293;76;28203;-50
2022/07/08 03:31:01;;;;;;;0.60;0.60;;;;;;;27.25;35.51;99892.42;1884582;75;28055;-50
2022/07/08 03:33:50;;;;;;;0.60;0.60;;;;;;;27.22;35.53;99892.39;1870747;75;28141;-50
2022/07/08 03:36:39;;;;;;;0.60;0.60;;;;;;;27.19;35.64;99903.92;1894871;75;28137;-51
2022/07/08 03:39:28;;;;;;;0.70;0.70;;;;;;;27.16;35.72;99892.05;1881571;75;28218;-48
2022/07/08 03:42:16;;;;;;;0.65;0.65;;;;;;;27.18;35.74;99894.00;1883355;75;28494;-54
2022/07/08 03:45:05;;;;;;;0.47;0.47;;;;;;;27.20;35.71;99897.33;1879890;75;28172;-50
2022/07/08 03:47:53;;;;;;;0.60;0.60;;;;;;;27.20;35.74;99892.35;1879867;75;28144;-48
2022/07/08 03:50:42;;;;;;;1.40;0.60;;;;;;;27.21;35.76;99910.02;1883822;75;28195;-49
2022/07/08 03:53:31;;;;;;;1.30;0.70;;;;;;;27.19;35.70;99897.02;1869433;76;28160;-51
2022/07/08 03:56:19;;;;;;;0.80;0.60;;;;;;;27.16;35.82;99911.89;1897548;75;28114;-51
2022/07/08 03:59:08;;;;;;;0.70;0.70;;;;;;;27.18;35.77;99908.33;1880246;75;28241;-50
2022/07/08 04:01:56;;;;;;;0.78;0.78;;;;;;;27.14;35.84;99921.77;1885709;75;28180;-50
2022/07/08 04:04:44;;;;;;;0.72;0.72;;;;;;;27.15;35.84;99911.05;1890854;75;28137;-46
2022/07/08 04:07:34;;;;;;;0.70;0.70;;;;;;;27.15;35.83;99915.19;1869402;76;28166;-52
2022/07/08 04:10:23;;;;;;;0.55;0.55;;;;;;;27.19;35.81;99919.09;1870130;73;28202;-49
2022/07/08 04:13:11;;;;;;;0.63;0.63;;;;;;;27.16;35.86;99917.41;1884940;75;28054;-52
2022/07/08 04:16:01;;;;;;;0.57;0.57;;;;;;;27.15;35.86;99918.48;1879987;75;28058;-48
2022/07/08 04:18:49;;;;;;;0.60;0.60;;;;;;;27.15;35.85;99933.11;1880322;75;28192;-49
2022/07/08 04:21:40;;;;;;;1.00;0.70;;;;;;;27.10;35.96;99928.89;1901824;75;28087;-54
2022/07/08 04:24:28;;;;;;;0.67;0.67;;;;;;;27.09;36.02;99931.92;1883729;75;28162;-46
2022/07/08 04:27:16;;;;;;;0.70;0.70;;;;;;;27.08;36.07;99932.45;1879892;75;28143;-55
2022/07/08 04:30:06;;;;;;;0.80;0.68;;;;;;;27.08;36.04;99935.75;1877549;75;28141;-50
2022/07/08 04:32:54;;;;;;;1.15;1.00;;;;;;;27.12;36.01;99924.52;1888003;75;28085;-50
2022/07/08 04:35:43;;;;;;;0.60;0.60;;;;;;;27.12;36.03;99939.69;1882118;75;28093;-50
2022/07/08 04:38:31;;;;;;;0.70;0.70;;;;;;;27.11;36.08;99939.39;1879936;75;28082;-51
2022/07/08 04:41:20;;;;;;;0.60;0.60;;;;;;;27.09;36.04;99944.33;1880284;75;28191;-54
2022/07/08 04:44:08;;;;;;;0.70;0.70;;;;;;;27.13;35.97;99932.53;1902009;75;28192;-51
2022/07/08 04:46:56;;;;;;;0.70;0.70;;;;;;;27.15;35.94;99938.63;1880374;75;28231;-48
2022/07/08 04:49:45;;;;;;;0.60;0.60;;;;;;;27.15;35.86;99938.63;1879785;75;28152;-49
2022/07/08 04:52:33;;;;;;;0.93;0.57;;;;;;;27.17;35.78;99933.69;1881065;75;28250;-53
2022/07/08 04:55:31;;;;;;;0.60;0.60;;;;;;;27.20;35.74;99946.14;1886675;75;28160;-48
2022/07/08 04:58:19;;;;;;;0.62;0.60;;;;;;;27.18;35.66;99935.38;1916293;73;27982;-49
2022/07/08 05:01:08;;;;;;;0.50;0.50;;;;;;;27.19;35.66;99934.83;1890998;75;28226;-51
2022/07/08 05:03:57;;;;;;;0.70;0.70;;;;;;;27.21;35.55;99940.92;1890289;75;28067;-50
2022/07/08 05:06:45;;;;;;;0.60;0.60;;;;;;;27.15;35.56;99948.28;1869629;76;28209;-49
2022/07/08 05:09:33;;;;;;;0.70;0.60;;;;;;;27.16;35.48;99937.55;1869260;76;28187;-50
2022/07/08 05:12:21;;;;;;;0.50;0.50;;;;;;;27.18;35.45;99940.88;1891042;75;31197;-56
2022/07/08 05:15:11;;;;;;;0.60;0.60;;;;;;;27.24;35.39;99950.05;1890304;75;28116;-51
2022/07/08 05:17:59;;;;;;;0.57;0.57;;;;;;;27.21;35.34;99943.11;1887065;75;28263;-52
2022/07/08 05:20:48;;;;;;;0.70;0.70;;;;;;;27.23;35.24;99945.09;1900439;75;28106;-54
2022/07/08 05:23:37;;;;;;;0.75;0.75;;;;;;;27.22;35.28;99950.31;1880309;75;28262;-51
2022/07/08 05:26:25;;;;;;;0.70;0.70;;;;;;;27.23;35.25;99951.16;1882047;75;28263;-53
2022/07/08 05:29:13;;;;;;;0.70;0.70;;;;;;;27.21;35.28;99947.82;1882991;75;28160;-55
2022/07/08 05:32:01;;;;;;;0.60;0.60;;;;;;;27.21;35.30;99950.01;1879171;75;28075;-50
2022/07/08 05:34:50;;;;;;;0.67;0.67;;;;;;;27.24;35.31;99951.42;1879964;75;28194;-52
2022/07/08 05:37:39;;;;;;;0.53;0.53;;;;;;;27.24;35.30;99953.65;1884469;75;28215;-49
2022/07/08 05:40:28;;;;;;;0.80;0.80;;;;;;;27.24;35.32;99943.99;1880721;75;28083;-50
2022/07/08 05:43:17;;;;;;;0.60;0.60;;;;;;;27.27;35.32;99944.88;1880152;75;28130;-52
2022/07/08 05:46:06;;;;;;;0.60;0.60;;;;;;;27.30;35.30;99948.51;1893416;73;28269;-52
2022/07/08 05:48:54;;;;;;;0.72;0.72;;;;;;;27.35;35.24;99935.33;1894783;73;28170;-54
2022/07/08 05:51:43;;;;;;;0.70;0.70;;;;;;;27.42;35.18;99942.91;1886424;73;28106;-49
2022/07/08 05:54:32;;;;;;;0.70;0.70;;;;;;;27.46;35.14;99943.22;1917100;73;28056;-52
2022/07/08 05:57:21;;;;;;;0.70;0.70;;;;;;;27.50;35.11;99955.40;1905349;73;28155;-51
2022/07/08 06:00:11;;;;;;;0.60;0.60;;;;;;;27.50;35.11;99954.86;1892885;73;28232;-50
2022/07/08 06:03:07;;;;;;;1.40;0.67;;;;;;;27.55;35.05;99952.72;1894549;73;28094;-55
2022/07/08 06:05:55;;;;;;;0.70;0.70;;;;;;;27.59;35.01;99960.77;1888108;73;28089;-53
2022/07/08 06:08:43;;;;;;;0.70;0.60;;;;;;;27.59;35.00;99964.36;1897989;73;28321;-49
2022/07/08 06:11:32;;;;;;;0.90;0.60;;;;;;;27.62;35.00;99961.64;1909838;73;27991;-53
2022/07/08 06:14:20;;;;;;;0.70;0.70;;;;;;;27.65;34.98;99973.55;1889326;73;28086;-55
2022/07/08 06:17:08;;;;;;;0.80;0.80;;;;;;;27.65;34.97;99963.35;1885088;73;28058;-54
2022/07/08 06:19:57;;;;;;;1.80;0.90;;;;;;;27.68;34.94;99956.48;1888316;73;28225;-53
2022/07/08 06:22:45;;;;;;;0.80;0.80;;;;;;;27.69;34.99;99958.14;1921198;73;28070;-55
2022/07/08 06:25:34;;;;;;;2.30;0.70;;;;;;;27.69;35.00;99958.14;1880208;75;28133;-54
2022/07/08 06:28:24;;;;;;;0.72;0.70;;;;;;;27.71;35.02;99964.23;1899047;75;28251;-52
2022/07/08 06:31:13;;;;;;;0.60;0.60;;;;;;;27.72;34.99;99971.44;1887592;75;28071;-52
2022/07/08 06:34:02;;;;;;;0.75;0.75;;;;;;;27.73;35.00;99964.80;1880952;75;28050;-55
2022/07/08 06:36:51;;;;;;;0.80;0.80;;;;;;;27.77;34.98;99964.60;1880426;75;28115;-55
2022/07/08 06:39:39;;;;;;;0.70;0.70;;;;;;;27.79;34.99;99969.31;1879908;75;28275;-54
2022/07/08 06:42:28;;;;;;;0.70;0.70;;;;;;;27.79;35.00;99977.60;1885546;75;28571;-54
2022/07/08 06:45:17;;;;;;;0.62;0.62;;;;;;;27.78;34.99;99969.02;1890746;75;28141;-50
2022/07/08 06:48:06;;;;;;;0.70;0.68;;;;;;;27.76;35.07;99965.14;1874572;75;28283;-51
2022/07/08 06:50:55;;;;;;;0.70;0.70;;;;;;;27.77;35.08;99971.50;1839800;77;28125;-54
2022/07/08 06:56:50;;;;;;;0.60;0.60;;;;;;;27.83;35.05;99975.98;1851956;76;28119;-50
2022/07/08 06:59:40;;;;;;;0.70;0.70;;;;;;;27.83;35.07;99980.13;1843222;76;28074;-52
2022/07/08 07:02:28;;;;;;;0.70;0.70;;;;;;;27.86;35.06;99982.38;1860737;76;28048;-51
2022/07/08 07:05:17;;;;;;;0.70;0.70;;;;;;;27.85;35.08;99982.92;1856306;76;28075;-50
2022/07/08 07:08:06;;;;;;;0.70;0.70;;;;;;;27.87;35.10;99984.03;1851248;76;28064;-49
2022/07/08 07:10:55;;;;;;;0.60;0.60;;;;;;;27.81;35.15;99965.75;1849749;76;28083;-51
2022/07/08 07:13:46;;;;;;;0.90;0.50;;;;;;;27.89;35.16;99972.21;1849868;76;28136;-54
2022/07/08 07:16:34;;;;;;;0.53;0.53;;;;;;;27.91;35.23;99965.31;1855074;76;28073;-54
2022/07/08 07:19:23;;;;;;;0.62;0.62;;;;;;;27.93;35.27;99968.67;1860614;76;28564;-50
2022/07/08 07:22:12;;;;;;;1.17;0.72;;;;;;;27.96;35.24;99964.53;1860803;76;28056;-51
2022/07/08 07:25:00;;;;;;;0.50;0.50;;;;;;;27.94;35.29;99957.89;1859141;76;28054;-50
2022/07/08 07:27:49;;;;;;;0.70;0.70;;;;;;;27.96;35.68;99960.39;1853598;76;28077;-49
2022/07/08 07:30:37;;;;;;;2.90;0.70;;;;;;;27.99;35.81;99958.53;1841390;76;28133;-48
2022/07/08 07:33:26;;;;;;;1.50;0.80;;;;;;;27.90;35.86;99969.72;1860400;76;28026;-54
2022/07/08 07:36:14;;;;;;;0.98;0.80;;;;;;;27.79;35.95;99977.60;1858257;76;28074;-50
2022/07/08 07:39:03;;;;;;;1.17;0.80;;;;;;;27.66;36.09;99959.48;1857007;76;28108;-51
2022/07/08 07:41:52;;;;;;;0.90;0.70;;;;;;;27.50;36.41;99950.72;1860532;76;28085;-48
2022/07/08 07:44:40;;;;;;;0.83;0.83;;;;;;;27.42;36.60;99955.86;1862927;76;28072;-53
2022/07/08 07:47:28;;;;;;;0.80;0.80;;;;;;;27.31;36.78;99952.92;1853438;76;28131;-50
2022/07/08 07:50:17;;;;;;;1.00;1.00;;;;;;;27.13;36.98;99947.70;1851187;76;28102;-52
2022/07/08 07:53:06;;;;;;;0.72;0.72;;;;;;;27.06;37.34;99956.70;1849692;76;28240;-50
2022/07/08 07:55:54;;;;;;;1.00;0.90;;;;;;;27.00;37.58;99956.88;1848487;76;28273;-51
2022/07/08 07:58:43;;;;;;;1.10;0.95;;;;;;;26.90;37.66;99954.80;1845028;76;28312;-52
2022/07/08 08:01:31;;;;;;;1.07;0.90;;;;;;;26.85;37.91;99934.03;1849815;76;28154;-53
2022/07/08 08:04:20;;;;;;;0.90;0.90;;;;;;;26.78;38.00;99936.12;1849498;76;28010;-54
2022/07/08 08:07:08;;;;;;;1.12;1.12;;;;;;;26.67;38.29;99936.49;1849411;76;28195;-53
2022/07/08 08:09:58;;;;;;;0.90;0.90;;;;;;;26.64;38.18;99926.50;1855175;76;28116;-51
2022/07/08 08:12:46;;;;;;;0.80;0.80;;;;;;;26.46;38.58;99957.90;1848834;76;28043;-50
2022/07/08 08:15:34;;;;;;;0.82;0.82;;;;;;;26.40;38.74;99942.34;1849747;76;28070;-51
2022/07/08 08:18:23;;;;;;;1.00;1.00;;;;;;;26.32;39.01;99934.51;1853716;76;28372;-50
2022/07/08 08:21:12;;;;;;;1.00;1.00;;;;;;;26.29;39.24;99940.50;1849407;76;28343;-51
2022/07/08 08:24:00;;;;;;;1.00;1.00;;;;;;;26.35;39.16;99955.21;1853582;76;28243;-51
2022/07/08 08:26:48;;;;;;;0.95;0.95;;;;;;;26.20;39.46;99926.84;1838746;77;28138;-54
2022/07/08 08:29:37;;;;;;;0.85;0.85;;;;;;;26.24;39.45;99931.30;1857265;76;28143;-50
2022/07/08 08:32:25;;;;;;;0.95;0.95;;;;;;;26.14;39.63;99945.72;1849953;76;28596;-50
2022/07/08 08:35:14;;;;;;;0.90;0.90;;;;;;;26.22;39.44;99929.34;1848495;76;28033;-51
2022/07/08 08:38:02;;;;;;;0.90;0.90;;;;;;;26.26;39.28;99931.89;1849011;76;33018;-52
2022/07/08 08:40:53;;;;;;;0.90;0.90;;;;;;;26.19;39.39;99927.92;1854580;76;28079;-55
2022/07/08 08:43:42;;;;;;;0.90;0.90;;;;;;;26.23;39.38;99901.58;1839248;77;28280;-54
2022/07/08 08:46:33;;;;;;;1.07;1.07;;;;;;;26.24;39.38;99920.29;1843627;76;28559;-48
2022/07/08 08:49:22;;;;;;;1.10;1.10;;;;;;;26.20;39.40;99903.44;1870464;75;28247;-50
2022/07/08 08:52:16;;;;;;;1.10;0.80;;;;;;;26.19;39.53;99911.93;1860169;76;28067;-51
2022/07/08 08:55:06;;;;;;;1.52;1.00;;;;;;;26.14;39.39;99911.87;1860212;76;28075;-49
2022/07/08 08:58:03;;;;;;;1.27;0.85;;;;;;;26.22;39.37;99894.38;1856981;76;28049;-50
2022/07/08 09:00:52;;;;;;;1.00;0.98;;;;;;;26.31;39.12;99927.31;1865112;75;28423;-51
2022/07/08 09:03:40;;;;;;;1.77;1.00;;;;;;;26.41;38.84;99897.20;1856759;76;28264;-50
2022/07/08 09:06:29;;;;;;;0.98;0.90;;;;;;;26.48;38.64;99903.38;1855970;76;28241;-54
2022/07/08 09:09:17;;;;;;;1.30;1.20;;;;;;;26.50;38.53;99901.73;1848841;76;28109;-51
2022/07/08 09:12:20;;;;;;;0.95;0.95;;;;;;;26.56;38.44;99900.72;1852401;75;28584;-53
2022/07/08 09:15:10;;;;;;;1.00;0.90;;;;;;;26.63;38.30;99909.66;1850909;76;28389;-51
2022/07/08 09:18:03;;;;;;;1.50;1.00;;;;;;;26.63;38.18;99909.66;1864686;76;28184;-51
2022/07/08 09:20:54;;;;;;;2.17;1.07;;;;;;;26.66;38.14;99907.78;1852918;75;28278;-50
2022/07/08 09:23:42;;;;;;;0.80;0.80;;;;;;;26.63;38.21;99894.50;1857273;75;28208;-51
2022/07/08 09:26:30;;;;;;;1.02;1.02;;;;;;;26.68;38.13;99898.72;1855230;76;28188;-53
2022/07/08 09:29:19;;;;;;;0.82;0.82;;;;;;;26.69;38.07;99905.38;1855748;76;28332;-47
2022/07/08 09:32:15;;;;;;;0.98;0.98;;;;;;;26.71;37.91;99899.60;1858174;75;28099;-52
2022/07/08 09:35:06;;;;;;;0.80;0.80;;;;;;;26.73;37.83;99911.20;1850175;76;28230;-54
2022/07/08 09:37:54;;;;;;;0.90;0.90;;;;;;;26.75;37.82;99910.44;1842708;76;28564;-51
2022/07/08 09:40:47;;;;;;;0.90;0.90;;;;;;;26.79;37.84;99875.80;1859890;76;28123;-51
2022/07/08 09:43:48;;;;;;;0.65;0.65;;;;;;;26.81;37.96;99869.48;1854757;76;32094;-50
2022/07/08 09:46:37;;;;;;;0.80;0.80;;;;;;;26.83;38.01;99883.00;1853295;76;28381;-49
2022/07/08 09:49:34;;;;;;;1.50;0.90;;;;;;;26.84;38.10;99879.98;1857972;76;28109;-51
2022/07/08 09:52:25;;;;;;;1.00;1.00;;;;;;;26.91;38.14;99882.58;1853549;76;28234;-50
2022/07/08 09:55:13;;;;;;;0.93;0.90;;;;;;;26.92;38.18;99876.80;1857153;76;28269;-51
2022/07/08 09:58:02;;;;;;;0.88;0.88;;;;;;;26.98;38.21;99877.15;1854672;76;28182;-50
2022/07/08 10:00:52;;;;;;;0.80;0.80;;;;;;;27.02;38.20;99867.30;1861386;75;28181;-52
2022/07/08 10:03:42;;;;;;;1.22;0.85;;;;;;;27.05;38.21;99868.16;1846648;76;32129;-53
2022/07/08 10:06:30;;;;;;;1.10;0.70;;;;;;;27.09;38.29;99862.98;1850916;76;28326;-51
2022/07/08 10:09:21;;;;;;;1.02;0.95;;;;;;;27.10;38.32;99862.70;1856320;76;28652;-50
2022/07/08 10:12:12;;;;;;;0.70;0.70;;;;;;;27.13;38.35;99845.66;1856391;76;28288;-51
2022/07/08 10:15:02;;;;;;;1.00;1.00;;;;;;;27.15;38.42;99853.12;1850399;76;28188;-51
2022/07/08 10:17:51;;;;;;;1.30;0.93;;;;;;;27.17;38.41;99848.72;1855291;76;28258;-50
2022/07/08 10:20:43;;;;;;;0.80;0.80;;;;;;;27.20;38.42;99843.55;1847476;76;31040;-49
2022/07/08 10:23:49;;;;;;;0.90;0.67;;;;;;;27.21;38.48;99855.42;1850228;76;28204;-51
2022/07/08 10:26:40;;;;;;;0.80;0.80;;;;;;;27.24;38.47;99850.20;1851018;76;28295;-53
2022/07/08 10:29:39;;;;;;;0.90;0.80;;;;;;;27.27;38.49;99851.08;1848201;75;28285;-54
2022/07/08 10:32:30;;;;;;;0.93;0.88;;;;;;;27.27;38.52;99864.87;1858563;75;28195;-51
2022/07/08 10:35:22;;;;;;;0.70;0.70;;;;;;;27.29;38.43;99846.14;1844424;76;28244;-50
2022/07/08 10:38:11;;;;;;;0.78;0.70;;;;;;;27.32;38.49;99850.31;1860971;76;28128;-51
2022/07/08 10:41:02;;;;;;;0.72;0.72;;;;;;;27.33;38.53;99851.42;1848783;76;28199;-51
2022/07/08 10:43:53;;;;;;;0.78;0.78;;;;;;;27.37;38.41;99845.73;1860164;76;28334;-50
2022/07/08 10:46:44;;;;;;;0.50;0.50;;;;;;;27.39;38.43;99831.67;1860424;76;28294;-51
2022/07/08 10:49:45;;;;;;;1.00;1.00;;;;;;;27.39;38.42;99862.86;1870388;76;28041;-47
2022/07/08 10:52:41;;;;;;;0.85;0.85;;;;;;;27.26;38.33;99842.50;1854464;74;28190;-47
2022/07/08 10:55:30;;;;;;;0.90;0.80;;;;;;;27.29;38.42;99832.34;1863676;76;28215;-48
2022/07/08 10:58:18;;;;;;;0.70;0.70;;;;;;;27.32;38.38;99840.66;1850119;76;28088;-51
2022/07/08 11:01:27;;;;;;;0.70;0.70;;;;;;;27.34;38.38;99831.57;1849947;76;28005;-49
2022/07/08 11:04:24;;;;;;;0.70;0.70;;;;;;;27.39;38.33;99826.98;1860560;76;28028;-47
2022/07/08 11:07:27;;;;;;;2.53;0.83;;;;;;;27.34;38.43;99826.89;1839600;77;28140;-48
2022/07/08 11:10:13;;;;;;;0.93;0.80;;;;;;;27.38;38.38;99824.47;1857174;76;28063;-46
2022/07/08 11:13:02;;;;;;;0.70;0.70;;;;;;;27.37;38.32;99820.91;1868371;76;28081;-49
2022/07/08 11:15:51;;;;;;;1.67;0.80;;;;;;;27.42;38.21;99801.34;1865738;76;28811;-52
2022/07/08 11:18:39;;;;;;;0.80;0.80;;;;;;;27.42;38.15;99818.75;1853846;74;28226;-48
2022/07/08 11:21:29;;;;;;;0.80;0.80;;;;;;;27.35;37.76;99836.81;1868306;74;28178;-49
2022/07/08 11:24:18;;;;;;;0.65;0.65;;;;;;;27.31;37.67;99849.47;1868321;74;28107;-52
2022/07/08 11:27:06;;;;;;;0.70;0.70;;;;;;;27.31;37.63;99812.23;1855289;74;28161;-47
2022/07/08 11:29:56;;;;;;;0.80;0.80;;;;;;;27.27;37.37;99830.39;1866749;74;28284;-52
2022/07/08 11:32:50;;;;;;;0.85;0.85;;;;;;;27.23;37.31;99804.42;1853526;74;28135;-51
2022/07/08 11:35:42;;;;;;;0.80;0.80;;;;;;;27.24;37.31;99798.34;1850359;76;31997;-54
2022/07/08 11:38:38;;;;;;;0.90;0.90;;;;;;;27.24;37.35;99802.47;1849529;76;28154;-54
2022/07/08 11:41:26;;;;;;;0.80;0.80;;;;;;;27.26;37.39;99794.23;1865884;76;28313;-51
2022/07/08 11:44:21;;;;;;;1.42;0.90;;;;;;;27.29;37.32;99781.85;1839452;76;28178;-51
2022/07/08 11:47:15;;;;;;;1.30;0.87;;;;;;;27.27;37.37;99804.73;1853725;76;27984;-47
2022/07/08 11:50:03;;;;;;;0.80;0.80;;;;;;;27.27;37.32;99789.02;1861935;76;28123;-50
2022/07/08 11:52:51;;;;;;;1.00;0.80;;;;;;;27.27;37.32;99794.53;1866421;74;28272;-52
2022/07/08 11:55:46;;;;;;;0.80;0.80;;;;;;;27.30;37.31;99798.16;1893023;74;31171;-51
2022/07/08 11:58:34;;;;;;;1.20;0.80;;;;;;;27.25;37.23;99775.19;1840366;76;28123;-47
2022/07/08 12:01:23;;;;;;;0.70;0.70;;;;;;;27.28;37.20;99778.25;1860793;76;28166;-48
2022/07/08 12:04:12;;;;;;;0.80;0.80;;;;;;;27.27;37.11;99779.36;1860763;76;28065;-50
2022/07/08 12:07:02;;;;;;;1.32;0.80;;;;;;;27.33;37.08;99765.90;1858053;76;28150;-47
2022/07/08 12:09:57;;;;;;;1.07;0.70;;;;;;;27.30;37.02;99758.70;1853249;76;28066;-50
2022/07/08 12:12:48;;;;;;;0.90;0.68;;;;;;;27.34;36.97;99754.33;1861959;76;28254;-50
2022/07/08 12:15:38;;;;;;;0.80;0.80;;;;;;;27.34;36.97;99753.79;1860988;76;32158;-52
2022/07/08 12:18:27;;;;;;;2.47;0.90;;;;;;;27.34;36.92;99746.89;1862397;74;28128;-49
2022/07/08 12:21:20;;;;;;;0.80;0.80;;;;;;;27.37;36.91;99743.66;1854506;76;28090;-49
2022/07/08 12:24:09;;;;;;;0.70;0.70;;;;;;;27.41;36.76;99743.95;1861006;76;28232;-49
2022/07/08 12:27:01;;;;;;;0.88;0.65;;;;;;;27.42;36.64;99743.41;1844429;76;27992;-50
2022/07/08 12:29:49;;;;;;;0.68;0.68;;;;;;;27.38;36.56;99739.78;1871118;76;28040;-55
2022/07/08 12:32:43;;;;;;;1.30;0.60;;;;;;;27.39;36.44;99735.95;1856950;76;28146;-49
2022/07/08 12:35:36;;;;;;;0.82;0.82;;;;;;;27.43;36.33;99744.52;1870603;76;28002;-49
2022/07/08 12:38:26;;;;;;;0.62;0.62;;;;;;;27.53;36.24;99750.15;1845365;76;28160;-51
2022/07/08 12:41:21;;;;;;;1.30;0.70;;;;;;;27.52;36.10;99731.91;1860407;76;27996;-48
2022/07/08 12:44:35;;;;;;;1.10;0.70;;;;;;;27.50;35.96;99724.98;1854890;76;28167;-52
2022/07/08 12:47:24;;;;;;;0.82;0.82;;;;;;;27.50;35.95;99729.13;1855672;76;28015;-50
2022/07/08 12:50:12;;;;;;;0.55;0.55;;;;;;;27.50;35.96;99731.34;1850424;76;28647;-52
2022/07/08 12:53:01;;;;;;;0.70;0.70;;;;;;;27.56;35.91;99736.38;1850146;75;28612;-49
2022/07/08 12:55:49;;;;;;;1.57;0.78;;;;;;;27.60;35.85;99720.41;1851338;76;30148;-51
2022/07/08 12:58:38;;;;;;;0.70;0.70;;;;;;;27.62;35.74;99712.70;1854080;76;28124;-46
2022/07/08 13:01:26;;;;;;;1.60;0.70;;;;;;;27.63;35.67;99712.16;1850332;76;28000;-46
2022/07/08 13:04:14;;;;;;;0.65;0.65;;;;;;;27.64;35.62;99733.97;1850099;76;28125;-51
2022/07/08 13:07:04;;;;;;;0.70;0.70;;;;;;;27.66;35.62;99733.69;1852723;76;28178;-51
2022/07/08 13:09:52;;;;;;;0.80;0.80;;;;;;;27.66;35.49;99724.03;1853163;76;28170;-53
2022/07/08 13:12:41;;;;;;;0.75;0.75;;;;;;;27.65;35.49;99723.77;1863533;76;28140;-50
2022/07/08 13:15:29;;;;;;;0.70;0.70;;;;;;;27.67;35.45;99722.95;1840061;77;28129;-51
2022/07/08 13:18:17;;;;;;;0.70;0.70;;;;;;;27.69;35.36;99724.35;1858265;76;32866;-47
2022/07/08 13:21:06;;;;;;;1.67;0.62;;;;;;;27.69;35.34;99723.52;1852402;76;28495;-49